sensor_id;sensor_type;location;lat;lon;timestamp;pressure;altitude;pressure_sealevel;temperature;humidity
40850;BME280;26571;41.610;25.380;2023-05-22T00:01:05;97934.75;;;16.59;79.14
40850;BME280;26571;41.610;25.380;2023-05-22T00:03:31;97918.41;;;16.55;79.83
40850;BME280;26571;41.610;25.380;2023-05-22T00:05:57;97916.78;;;16.54;80.76
40850;BME280;26571;41.610;25.380;2023-05-22T00:08:24;97925.41;;;16.49;80.92
40850;BME280;26571;41.610;25.380;2023-05-22T00:10:50;97911.31;;;16.49;80.94
40850;BME280;26571;41.610;25.380;2023-05-22T00:13:15;97906.22;;;16.47;81.40
40850;BME280;26571;41.610;25.380;2023-05-22T00:15:40;97906.38;;;16.52;80.91
40850;BME280;26571;41.610;25.380;2023-05-22T00:18:06;97915.75;;;16.55;80.24
40850;BME280;26571;41.610;25.380;2023-05-22T00:20:32;97909.03;;;16.52;80.43
40850;BME280;26571;41.610;25.380;2023-05-22T00:23:05;97912.28;;;16.54;79.56
40850;BME280;26571;41.610;25.380;2023-05-22T00:25:41;97916.41;;;16.50;79.61
40850;BME280;26571;41.610;25.380;2023-05-22T00:28:07;97905.84;;;16.44;79.45
40850;BME280;26571;41.610;25.380;2023-05-22T00:30:32;97912.75;;;16.51;80.29
40850;BME280;26571;41.610;25.380;2023-05-22T00:32:58;97893.28;;;16.26;80.68
40850;BME280;26571;41.610;25.380;2023-05-22T00:35:23;97915.00;;;16.48;80.35
40850;BME280;26571;41.610;25.380;2023-05-22T00:37:48;97912.78;;;16.45;80.63
40850;BME280;26571;41.610;25.380;2023-05-22T00:40:14;97915.88;;;16.42;81.42
40850;BME280;26571;41.610;25.380;2023-05-22T00:42:43;97930.38;;;16.39;81.53
40850;BME280;26571;41.610;25.380;2023-05-22T00:45:10;97909.03;;;16.27;81.45
40850;BME280;26571;41.610;25.380;2023-05-22T00:47:35;97921.38;;;16.40;81.24
40850;BME280;26571;41.610;25.380;2023-05-22T00:50:02;97923.88;;;16.35;81.97
40850;BME280;26571;41.610;25.380;2023-05-22T00:52:27;97920.47;;;16.28;82.21
40850;BME280;26571;41.610;25.380;2023-05-22T00:54:54;97919.44;;;16.29;81.51
40850;BME280;26571;41.610;25.380;2023-05-22T00:57:19;97920.47;;;16.28;81.03
40850;BME280;26571;41.610;25.380;2023-05-22T00:59:46;97923.13;;;16.28;81.00
40850;BME280;26571;41.610;25.380;2023-05-22T01:02:13;97930.06;;;16.29;79.45
40850;BME280;26571;41.610;25.380;2023-05-22T01:04:43;97928.03;;;16.31;78.60
40850;BME280;26571;41.610;25.380;2023-05-22T01:07:12;97915.41;;;16.20;78.11
40850;BME280;26571;41.610;25.380;2023-05-22T01:09:37;97924.91;;;16.34;77.87
40850;BME280;26571;41.610;25.380;2023-05-22T01:12:16;97921.38;;;16.40;76.82
40850;BME280;26571;41.610;25.380;2023-05-22T01:17:27;97920.53;;;16.46;76.13
40850;BME280;26571;41.610;25.380;2023-05-22T01:20:23;97917.72;;;16.41;76.80
40850;BME280;26571;41.610;25.380;2023-05-22T01:25:36;97916.94;;;16.34;76.93
40850;BME280;26571;41.610;25.380;2023-05-22T01:31:10;97896.16;;;16.31;76.76
40850;BME280;26571;41.610;25.380;2023-05-22T01:33:44;97905.72;;;16.32;76.98
40850;BME280;26571;41.610;25.380;2023-05-22T01:36:13;97898.19;;;16.29;77.32
40850;BME280;26571;41.610;25.380;2023-05-22T01:38:40;97903.50;;;16.29;77.40
40850;BME280;26571;41.610;25.380;2023-05-22T01:41:08;97902.47;;;16.30;77.22
40850;BME280;26571;41.610;25.380;2023-05-22T01:43:34;97909.44;;;16.31;77.25
40850;BME280;26571;41.610;25.380;2023-05-22T01:45:59;97901.44;;;16.31;76.93
40850;BME280;26571;41.610;25.380;2023-05-22T01:48:26;97906.16;;;16.29;76.91
40850;BME280;26571;41.610;25.380;2023-05-22T01:50:52;97901.22;;;16.33;76.08
40850;BME280;26571;41.610;25.380;2023-05-22T01:53:31;97904.09;;;16.31;76.10
40850;BME280;26571;41.610;25.380;2023-05-22T01:56:13;97902.25;;;16.32;75.78
40850;BME280;26571;41.610;25.380;2023-05-22T01:59:00;97904.13;;;16.24;76.37
40850;BME280;26571;41.610;25.380;2023-05-22T02:01:29;97902.09;;;16.26;76.03
40850;BME280;26571;41.610;25.380;2023-05-22T02:03:57;97908.41;;;16.25;76.01
40850;BME280;26571;41.610;25.380;2023-05-22T02:06:24;97902.75;;;16.22;75.69
40850;BME280;26571;41.610;25.380;2023-05-22T02:08:51;97895.94;;;16.26;75.05
40850;BME280;26571;41.610;25.380;2023-05-22T02:11:18;97904.38;;;16.23;75.46
40850;BME280;26571;41.610;25.380;2023-05-22T02:13:46;97901.53;;;16.18;75.55
40850;BME280;26571;41.610;25.380;2023-05-22T02:16:12;97904.19;;;16.18;75.34
40850;BME280;26571;41.610;25.380;2023-05-22T02:18:38;97881.25;;;15.98;75.24
40850;BME280;26571;41.610;25.380;2023-05-22T02:21:06;97914.03;;;16.11;75.10
40850;BME280;26571;41.610;25.380;2023-05-22T02:23:33;97901.59;;;16.11;75.29
40850;BME280;26571;41.610;25.380;2023-05-22T02:25:58;97866.75;;;15.94;74.96
40850;BME280;26571;41.610;25.380;2023-05-22T02:28:24;97897.09;;;16.12;75.32
40850;BME280;26571;41.610;25.380;2023-05-22T02:30:50;97900.75;;;16.11;75.42
40850;BME280;26571;41.610;25.380;2023-05-22T02:33:15;97899.56;;;16.07;75.51
40850;BME280;26571;41.610;25.380;2023-05-22T02:35:43;97863.19;;;15.82;75.61
40850;BME280;26571;41.610;25.380;2023-05-22T02:38:09;97906.50;;;16.08;76.05
40850;BME280;26571;41.610;25.380;2023-05-22T02:40:34;97900.34;;;16.14;75.41
40850;BME280;26571;41.610;25.380;2023-05-22T02:42:59;97900.72;;;16.17;74.21
40850;BME280;26571;41.610;25.380;2023-05-22T02:45:25;97885.28;;;16.08;73.94
40850;BME280;26571;41.610;25.380;2023-05-22T02:47:50;97905.41;;;16.22;73.79
40850;BME280;26571;41.610;25.380;2023-05-22T02:50:16;97901.09;;;16.21;74.20
40850;BME280;26571;41.610;25.380;2023-05-22T02:52:41;97908.06;;;16.22;74.67
40850;BME280;26571;41.610;25.380;2023-05-22T02:55:09;97900.66;;;16.24;74.03
40850;BME280;26571;41.610;25.380;2023-05-22T02:57:35;97912.91;;;16.25;74.03
40850;BME280;26571;41.610;25.380;2023-05-22T03:00:00;97895.38;;;16.24;74.11
40850;BME280;26571;41.610;25.380;2023-05-22T03:02:25;97900.66;;;16.24;74.33
40850;BME280;26571;41.610;25.380;2023-05-22T03:04:52;97899.00;;;16.29;73.55
40850;BME280;26571;41.610;25.380;2023-05-22T03:07:18;97901.06;;;16.27;72.91
40850;BME280;26571;41.610;25.380;2023-05-22T03:09:45;97893.25;;;16.33;71.70
40850;BME280;26571;41.610;25.380;2023-05-22T03:12:11;97903.06;;;16.32;72.27
40850;BME280;26571;41.610;25.380;2023-05-22T03:14:36;97905.09;;;16.37;72.19
40850;BME280;26571;41.610;25.380;2023-05-22T03:17:02;97905.03;;;16.43;71.30
40850;BME280;26571;41.610;25.380;2023-05-22T03:19:27;97913.81;;;16.44;70.82
40850;BME280;26571;41.610;25.380;2023-05-22T03:21:53;97912.28;;;16.54;70.47
40850;BME280;26571;41.610;25.380;2023-05-22T03:24:18;97915.91;;;16.60;70.43
40850;BME280;26571;41.610;25.380;2023-05-22T03:26:45;97919.22;;;16.55;70.47
40850;BME280;26571;41.610;25.380;2023-05-22T03:29:10;97920.41;;;16.60;70.61
40850;BME280;26571;41.610;25.380;2023-05-22T03:31:36;97922.19;;;16.66;70.77
40850;BME280;26571;41.610;25.380;2023-05-22T03:34:01;97913.56;;;16.70;70.10
40850;BME280;26571;41.610;25.380;2023-05-22T03:36:27;97912.94;;;16.75;69.88
40850;BME280;26571;41.610;25.380;2023-05-22T03:38:53;97919.47;;;16.79;69.94
40850;BME280;26571;41.610;25.380;2023-05-22T03:41:19;97914.97;;;16.79;69.55
40850;BME280;26571;41.610;25.380;2023-05-22T03:43:45;97921.47;;;16.84;69.67
40850;BME280;26571;41.610;25.380;2023-05-22T03:46:10;97899.13;;;16.66;69.04
40850;BME280;26571;41.610;25.380;2023-05-22T03:48:37;97913.41;;;16.72;68.73
40850;BME280;26571;41.610;25.380;2023-05-22T03:51:03;97918.16;;;16.88;68.16
40850;BME280;26571;41.610;25.380;2023-05-22T03:53:28;97919.94;;;16.94;67.54
40850;BME280;26571;41.610;25.380;2023-05-22T03:55:54;97910.72;;;16.97;67.35
40850;BME280;26571;41.610;25.380;2023-05-22T03:58:22;97918.84;;;17.02;66.99
40850;BME280;26571;41.610;25.380;2023-05-22T04:00:53;97897.63;;;16.95;67.13
40850;BME280;26571;41.610;25.380;2023-05-22T04:03:19;97921.00;;;17.12;67.13
40850;BME280;26571;41.610;25.380;2023-05-22T04:05:45;97904.81;;;17.13;67.07
40850;BME280;26571;41.610;25.380;2023-05-22T04:08:11;97923.91;;;17.95;67.30
40850;BME280;26571;41.610;25.380;2023-05-22T04:10:36;97926.22;;;19.10;61.40
40850;BME280;26571;41.610;25.380;2023-05-22T04:13:05;97926.09;;;19.57;57.08
40850;BME280;26571;41.610;25.380;2023-05-22T04:15:31;97930.66;;;19.97;56.42
40850;BME280;26571;41.610;25.380;2023-05-22T04:18:00;97930.75;;;20.48;54.29
40850;BME280;26571;41.610;25.380;2023-05-22T04:20:26;97938.06;;;20.52;53.62
40850;BME280;26571;41.610;25.380;2023-05-22T04:22:51;97932.19;;;20.38;53.16
40850;BME280;26571;41.610;25.380;2023-05-22T04:25:18;97937.16;;;20.18;52.91
40850;BME280;26571;41.610;25.380;2023-05-22T04:27:43;97939.16;;;19.94;53.41
40850;BME280;26571;41.610;25.380;2023-05-22T04:30:09;97935.38;;;19.78;53.86
40850;BME280;26571;41.610;25.380;2023-05-22T04:32:35;97926.50;;;19.61;53.66
40850;BME280;26571;41.610;25.380;2023-05-22T04:35:01;97941.69;;;19.49;54.76
40850;BME280;26571;41.610;25.380;2023-05-22T04:37:26;97933.72;;;19.37;55.68
40850;BME280;26571;41.610;25.380;2023-05-22T04:39:53;97942.06;;;19.29;56.04
40850;BME280;26571;41.610;25.380;2023-05-22T04:42:23;97937.78;;;19.28;55.69
40850;BME280;26571;41.610;25.380;2023-05-22T04:44:49;97941.94;;;19.24;56.36
40850;BME280;26571;41.610;25.380;2023-05-22T04:47:17;97947.78;;;19.21;57.15
40850;BME280;26571;41.610;25.380;2023-05-22T04:49:43;97940.34;;;19.23;56.84
40850;BME280;26571;41.610;25.380;2023-05-22T04:52:10;97939.53;;;19.22;57.39
40850;BME280;26571;41.610;25.380;2023-05-22T04:54:35;97939.88;;;19.26;57.26
40850;BME280;26571;41.610;25.380;2023-05-22T04:57:01;97941.03;;;19.30;57.34
40850;BME280;26571;41.610;25.380;2023-05-22T04:59:34;97911.56;;;19.25;56.84
40850;BME280;26571;41.610;25.380;2023-05-22T05:02:03;97944.13;;;19.62;56.14
40850;BME280;26571;41.610;25.380;2023-05-22T05:04:28;97953.94;;;19.85;56.22
40850;BME280;26571;41.610;25.380;2023-05-22T05:06:54;97951.31;;;20.02;54.98
40850;BME280;26571;41.610;25.380;2023-05-22T05:09:22;97958.72;;;20.11;53.63
40850;BME280;26571;41.610;25.380;2023-05-22T05:11:47;97962.25;;;20.29;52.45
40850;BME280;26571;41.610;25.380;2023-05-22T05:14:13;97963.34;;;20.61;52.48
40850;BME280;26571;41.610;25.380;2023-05-22T05:16:39;97963.34;;;21.12;52.64
40850;BME280;26571;41.610;25.380;2023-05-22T05:19:05;97962.31;;;21.96;49.18
40850;BME280;26571;41.610;25.380;2023-05-22T05:21:30;97964.72;;;22.46;47.65
40850;BME280;26571;41.610;25.380;2023-05-22T05:23:56;97963.00;;;22.94;45.35
40850;BME280;26571;41.610;25.380;2023-05-22T05:26:21;97967.50;;;23.26;43.86
40850;BME280;26571;41.610;25.380;2023-05-22T05:28:48;97967.81;;;22.92;43.96
40850;BME280;26571;41.610;25.380;2023-05-22T05:31:14;97971.41;;;22.43;43.99
40850;BME280;26571;41.610;25.380;2023-05-22T05:33:39;97983.72;;;22.17;45.26
40850;BME280;26571;41.610;25.380;2023-05-22T05:36:05;97977.25;;;21.91;46.67
40850;BME280;26571;41.610;25.380;2023-05-22T05:38:31;97984.53;;;21.52;47.25
40850;BME280;26571;41.610;25.380;2023-05-22T05:40:56;97982.94;;;21.17;48.69
40850;BME280;26571;41.610;25.380;2023-05-22T05:43:22;97976.66;;;20.90;48.29
40850;BME280;26571;41.610;25.380;2023-05-22T05:45:49;97987.22;;;20.80;49.30
40850;BME280;26571;41.610;25.380;2023-05-22T05:48:15;97980.72;;;20.76;50.17
40850;BME280;26571;41.610;25.380;2023-05-22T05:50:41;97990.44;;;20.82;50.71
40850;BME280;26571;41.610;25.380;2023-05-22T05:53:07;97989.97;;;20.85;51.00
40850;BME280;26571;41.610;25.380;2023-05-22T05:55:32;97992.56;;;20.80;49.78
40850;BME280;26571;41.610;25.380;2023-05-22T05:57:58;98002.59;;;20.73;49.78
40850;BME280;26571;41.610;25.380;2023-05-22T06:00:23;97996.50;;;20.77;49.96
40850;BME280;26571;41.610;25.380;2023-05-22T06:02:49;98009.25;;;20.87;48.85
40850;BME280;26571;41.610;25.380;2023-05-22T06:05:14;97999.69;;;20.91;49.14
40850;BME280;26571;41.610;25.380;2023-05-22T06:07:41;97999.22;;;20.94;48.06
40850;BME280;26571;41.610;25.380;2023-05-22T06:10:09;98000.81;;;20.95;47.95
40850;BME280;26571;41.610;25.380;2023-05-22T06:12:35;97993.69;;;21.01;48.46
40850;BME280;26571;41.610;25.380;2023-05-22T06:15:02;97994.16;;;21.14;48.67
40850;BME280;26571;41.610;25.380;2023-05-22T06:17:29;98001.38;;;21.31;48.20
40850;BME280;26571;41.610;25.380;2023-05-22T06:19:54;98005.00;;;21.41;47.83
40850;BME280;26571;41.610;25.380;2023-05-22T06:22:19;98003.34;;;21.57;48.54
40850;BME280;26571;41.610;25.380;2023-05-22T06:24:45;98000.50;;;21.86;48.55
40850;BME280;26571;41.610;25.380;2023-05-22T06:27:10;97997.78;;;22.25;47.05
40850;BME280;26571;41.610;25.380;2023-05-22T06:29:36;98003.03;;;22.68;46.61
40850;BME280;26571;41.610;25.380;2023-05-22T06:32:01;98003.41;;;23.14;45.05
40850;BME280;26571;41.610;25.380;2023-05-22T06:34:27;97994.00;;;23.54;43.56
40850;BME280;26571;41.610;25.380;2023-05-22T06:36:53;97989.31;;;23.87;42.92
40850;BME280;26571;41.610;25.380;2023-05-22T06:39:20;97994.78;;;24.02;42.81
40850;BME280;26571;41.610;25.380;2023-05-22T06:41:45;97985.69;;;24.23;42.76
40850;BME280;26571;41.610;25.380;2023-05-22T06:44:11;97983.28;;;24.32;41.94
40850;BME280;26571;41.610;25.380;2023-05-22T06:46:37;97941.56;;;24.30;42.30
40850;BME280;26571;41.610;25.380;2023-05-22T06:49:02;97994.41;;;24.92;41.07
40850;BME280;26571;41.610;25.380;2023-05-22T06:51:28;97972.31;;;24.95;40.92
40850;BME280;26571;41.610;25.380;2023-05-22T06:53:53;97990.88;;;25.32;39.80
40850;BME280;26571;41.610;25.380;2023-05-22T06:56:19;98002.16;;;25.49;39.89
40850;BME280;26571;41.610;25.380;2023-05-22T06:58:44;97987.56;;;25.61;39.54
40850;BME280;26571;41.610;25.380;2023-05-22T07:01:10;97991.06;;;25.76;38.91
40850;BME280;26571;41.610;25.380;2023-05-22T07:03:35;97989.44;;;25.60;39.02
40850;BME280;26571;41.610;25.380;2023-05-22T07:06:01;97957.97;;;25.45;40.12
40850;BME280;26571;41.610;25.380;2023-05-22T07:08:27;98001.81;;;25.82;39.63
40850;BME280;26571;41.610;25.380;2023-05-22T07:10:52;97996.88;;;26.04;38.27
40850;BME280;26571;41.610;25.380;2023-05-22T07:13:18;97969.63;;;26.00;39.09
40850;BME280;26571;41.610;25.380;2023-05-22T07:15:44;97961.16;;;26.22;40.64
40850;BME280;26571;41.610;25.380;2023-05-22T07:18:10;97996.09;;;26.48;37.88
40850;BME280;26571;41.610;25.380;2023-05-22T07:20:36;97994.06;;;26.24;39.23
40850;BME280;26571;41.610;25.380;2023-05-22T07:23:02;98000.00;;;26.26;38.88
40850;BME280;26571;41.610;25.380;2023-05-22T07:25:28;97995.09;;;26.34;38.71
40850;BME280;26571;41.610;25.380;2023-05-22T07:27:53;98009.06;;;26.51;38.71
40850;BME280;26571;41.610;25.380;2023-05-22T07:30:20;98007.50;;;26.29;38.50
40850;BME280;26571;41.610;25.380;2023-05-22T07:32:46;98006.84;;;26.58;38.88
40850;BME280;26571;41.610;25.380;2023-05-22T07:35:12;98009.97;;;26.70;38.84
40850;BME280;26571;41.610;25.380;2023-05-22T07:37:37;98000.28;;;26.69;37.51
40850;BME280;26571;41.610;25.380;2023-05-22T07:40:04;98011.50;;;26.47;38.74
40850;BME280;26571;41.610;25.380;2023-05-22T07:42:31;98000.69;;;26.47;38.75
40850;BME280;26571;41.610;25.380;2023-05-22T07:44:56;98001.91;;;26.65;38.20
40850;BME280;26571;41.610;25.380;2023-05-22T07:47:21;97994.16;;;26.93;37.50
40850;BME280;26571;41.610;25.380;2023-05-22T07:49:47;97992.38;;;27.12;37.36
40850;BME280;26571;41.610;25.380;2023-05-22T07:52:12;97971.31;;;26.46;38.04
40850;BME280;26571;41.610;25.380;2023-05-22T07:54:38;98000.72;;;26.82;37.36
40850;BME280;26571;41.610;25.380;2023-05-22T07:57:03;98001.69;;;26.96;37.00
40850;BME280;26571;41.610;25.380;2023-05-22T07:59:28;97998.00;;;26.87;36.38
40850;BME280;26571;41.610;25.380;2023-05-22T08:01:54;98006.69;;;26.78;36.79
40850;BME280;26571;41.610;25.380;2023-05-22T08:04:19;98004.25;;;26.38;37.17
40850;BME280;26571;41.610;25.380;2023-05-22T08:06:45;98004.25;;;25.83;39.26
40850;BME280;26571;41.610;25.380;2023-05-22T08:09:10;98006.78;;;25.34;38.63
40850;BME280;26571;41.610;25.380;2023-05-22T08:11:36;98018.06;;;25.36;40.77
40850;BME280;26571;41.610;25.380;2023-05-22T08:14:04;98008.13;;;25.31;39.69
40850;BME280;26571;41.610;25.380;2023-05-22T08:16:29;98013.22;;;25.43;40.29
40850;BME280;26571;41.610;25.380;2023-05-22T08:18:56;98002.09;;;25.70;40.07
40850;BME280;26571;41.610;25.380;2023-05-22T08:21:21;98004.56;;;25.66;39.60
40850;BME280;26571;41.610;25.380;2023-05-22T08:23:47;97997.50;;;25.70;38.67
40850;BME280;26571;41.610;25.380;2023-05-22T08:26:13;97988.47;;;25.15;39.92
40850;BME280;26571;41.610;25.380;2023-05-22T08:28:39;98004.53;;;25.76;40.81
40850;BME280;26571;41.610;25.380;2023-05-22T08:31:11;98014.53;;;25.76;39.94
40850;BME280;26571;41.610;25.380;2023-05-22T08:33:36;98011.88;;;25.35;38.87
40850;BME280;26571;41.610;25.380;2023-05-22T08:36:02;98005.44;;;24.95;40.17
40850;BME280;26571;41.610;25.380;2023-05-22T08:38:27;98010.28;;;25.04;39.87
40850;BME280;26571;41.610;25.380;2023-05-22T08:40:53;97968.97;;;24.21;38.07
40850;BME280;26571;41.610;25.380;2023-05-22T08:43:22;98003.28;;;24.57;40.30
40850;BME280;26571;41.610;25.380;2023-05-22T08:45:53;97992.78;;;24.75;39.65
40850;BME280;26571;41.610;25.380;2023-05-22T08:48:22;97968.00;;;24.63;40.26
40850;BME280;26571;41.610;25.380;2023-05-22T08:50:52;97987.94;;;24.57;38.13
40850;BME280;26571;41.610;25.380;2023-05-22T08:53:22;97990.88;;;24.61;39.58
40850;BME280;26571;41.610;25.380;2023-05-22T08:55:52;97989.53;;;24.73;37.76
40850;BME280;26571;41.610;25.380;2023-05-22T08:58:17;98004.09;;;25.03;39.39
40850;BME280;26571;41.610;25.380;2023-05-22T09:00:43;97985.19;;;25.39;38.66
40850;BME280;26571;41.610;25.380;2023-05-22T09:03:09;97966.19;;;25.85;39.60
40850;BME280;26571;41.610;25.380;2023-05-22T09:05:38;97986.59;;;26.11;38.46
40850;BME280;26571;41.610;25.380;2023-05-22T09:08:05;97992.09;;;25.81;36.75
40850;BME280;26571;41.610;25.380;2023-05-22T09:10:32;97981.91;;;25.67;40.22
40850;BME280;26571;41.610;25.380;2023-05-22T09:13:06;97977.88;;;25.55;39.39
40850;BME280;26571;41.610;25.380;2023-05-22T09:15:35;97984.00;;;25.81;38.53
40850;BME280;26571;41.610;25.380;2023-05-22T09:18:02;97980.50;;;25.80;37.98
40850;BME280;26571;41.610;25.380;2023-05-22T09:20:28;97979.38;;;25.96;37.59
40850;BME280;26571;41.610;25.380;2023-05-22T09:22:53;97982.84;;;26.02;38.92
40850;BME280;26571;41.610;25.380;2023-05-22T09:25:20;97977.94;;;26.09;38.71
40850;BME280;26571;41.610;25.380;2023-05-22T09:27:48;97975.88;;;26.45;38.31
40850;BME280;26571;41.610;25.380;2023-05-22T09:30:17;97989.09;;;26.47;37.24
40850;BME280;26571;41.610;25.380;2023-05-22T09:32:44;97982.16;;;26.25;38.59
40850;BME280;26571;41.610;25.380;2023-05-22T09:35:11;97977.34;;;26.22;37.34
40850;BME280;26571;41.610;25.380;2023-05-22T09:37:37;97984.53;;;26.37;38.25
40850;BME280;26571;41.610;25.380;2023-05-22T09:40:10;97983.75;;;26.37;37.61
40850;BME280;26571;41.610;25.380;2023-05-22T09:42:37;97986.94;;;26.39;37.67
40850;BME280;26571;41.610;25.380;2023-05-22T09:45:04;97962.84;;;26.08;38.80
40850;BME280;26571;41.610;25.380;2023-05-22T09:47:30;97962.81;;;26.13;38.43
40850;BME280;26571;41.610;25.380;2023-05-22T09:49:57;97965.59;;;25.98;38.72
40850;BME280;26571;41.610;25.380;2023-05-22T09:52:27;97987.00;;;25.69;38.78
40850;BME280;26571;41.610;25.380;2023-05-22T09:54:54;97981.25;;;26.01;38.93
40850;BME280;26571;41.610;25.380;2023-05-22T09:57:22;97986.16;;;26.43;38.11
40850;BME280;26571;41.610;25.380;2023-05-22T09:59:53;97983.84;;;26.66;37.13
40850;BME280;26571;41.610;25.380;2023-05-22T10:02:26;97981.56;;;26.39;37.28
40850;BME280;26571;41.610;25.380;2023-05-22T10:04:52;97977.59;;;26.26;38.13
40850;BME280;26571;41.610;25.380;2023-05-22T10:07:21;97984.56;;;25.72;39.59
40850;BME280;26571;41.610;25.380;2023-05-22T10:09:58;97985.69;;;25.61;39.33
40850;BME280;26571;41.610;25.380;2023-05-22T10:12:27;97989.69;;;25.69;40.02
40850;BME280;26571;41.610;25.380;2023-05-22T10:14:56;97980.78;;;25.84;39.28
40850;BME280;26571;41.610;25.380;2023-05-22T10:17:23;97978.63;;;25.75;39.13
40850;BME280;26571;41.610;25.380;2023-05-22T10:19:49;97965.72;;;25.77;40.28
40850;BME280;26571;41.610;25.380;2023-05-22T10:22:15;97962.97;;;25.83;38.36
40850;BME280;26571;41.610;25.380;2023-05-22T10:24:48;97963.06;;;25.57;38.35
40850;BME280;26571;41.610;25.380;2023-05-22T10:27:14;97979.28;;;25.42;39.71
40850;BME280;26571;41.610;25.380;2023-05-22T10:29:49;97976.59;;;25.42;39.25
40850;BME280;26571;41.610;25.380;2023-05-22T10:32:22;97970.66;;;25.35;39.46
40850;BME280;26571;41.610;25.380;2023-05-22T10:35:20;97966.84;;;25.51;40.17
40850;BME280;26571;41.610;25.380;2023-05-22T10:37:50;97968.47;;;25.52;41.93
40850;BME280;26571;41.610;25.380;2023-05-22T10:40:28;97966.22;;;25.69;40.73
40850;BME280;26571;41.610;25.380;2023-05-22T10:43:00;97969.59;;;25.25;39.30
40850;BME280;26571;41.610;25.380;2023-05-22T10:45:27;97970.66;;;25.30;40.27
40850;BME280;26571;41.610;25.380;2023-05-22T10:48:08;97959.41;;;25.12;40.30
40850;BME280;26571;41.610;25.380;2023-05-22T10:50:36;97951.06;;;25.09;40.70
40850;BME280;26571;41.610;25.380;2023-05-22T10:53:24;97955.91;;;25.12;39.21
40850;BME280;26571;41.610;25.380;2023-05-22T10:55:54;97954.78;;;25.23;39.79
40850;BME280;26571;41.610;25.380;2023-05-22T10:58:25;97955.63;;;25.18;39.50
40850;BME280;26571;41.610;25.380;2023-05-22T11:01:17;97943.50;;;24.70;40.48
40850;BME280;26571;41.610;25.380;2023-05-22T11:03:52;97940.28;;;24.58;41.74
40850;BME280;26571;41.610;25.380;2023-05-22T11:06:31;97937.31;;;24.69;41.73
40850;BME280;26571;41.610;25.380;2023-05-22T11:08:57;97936.25;;;24.70;40.83
40850;BME280;26571;41.610;25.380;2023-05-22T11:11:26;97931.41;;;24.67;41.15
40850;BME280;26571;41.610;25.380;2023-05-22T11:13:52;97937.31;;;24.69;40.83
40850;BME280;26571;41.610;25.380;2023-05-22T11:16:30;97928.41;;;24.99;39.75
40850;BME280;26571;41.610;25.380;2023-05-22T11:19:04;97923.28;;;25.03;39.91
40850;BME280;26571;41.610;25.380;2023-05-22T11:21:30;97922.22;;;25.09;40.69
40850;BME280;26571;41.610;25.380;2023-05-22T11:23:59;97920.06;;;25.21;40.92
40850;BME280;26571;41.610;25.380;2023-05-22T11:26:25;97926.44;;;25.36;40.32
40850;BME280;26571;41.610;25.380;2023-05-22T11:28:51;97905.50;;;25.17;40.04
40850;BME280;26571;41.610;25.380;2023-05-22T11:58:12;97914.19;;;24.43;42.42
40850;BME280;26571;41.610;25.380;2023-05-22T12:00:38;97918.47;;;24.80;43.73
40850;BME280;26571;41.610;25.380;2023-05-22T12:03:05;97918.44;;;25.00;40.53
40850;BME280;26571;41.610;25.380;2023-05-22T12:05:31;97911.97;;;24.91;41.43
40850;BME280;26571;41.610;25.380;2023-05-22T12:07:58;97902.84;;;24.92;40.10
40850;BME280;26571;41.610;25.380;2023-05-22T12:10:26;97899.91;;;24.78;42.17
40850;BME280;26571;41.610;25.380;2023-05-22T12:12:51;97898.03;;;24.53;42.35
40850;BME280;26571;41.610;25.380;2023-05-22T12:15:19;97903.66;;;24.41;43.64
40850;BME280;26571;41.610;25.380;2023-05-22T12:17:46;97894.25;;;24.64;42.44
40850;BME280;26571;41.610;25.380;2023-05-22T12:20:12;97887.50;;;24.92;42.93
40850;BME280;26571;41.610;25.380;2023-05-22T12:22:43;97895.56;;;25.08;41.28
40850;BME280;26571;41.610;25.380;2023-05-22T12:25:17;97862.94;;;25.04;39.90
40850;BME280;26571;41.610;25.380;2023-05-22T12:27:43;97889.09;;;25.04;38.97
40850;BME280;26571;41.610;25.380;2023-05-22T12:30:13;97887.25;;;24.63;40.71
40850;BME280;26571;41.610;25.380;2023-05-22T12:32:39;97858.19;;;24.30;41.19
40850;BME280;26571;41.610;25.380;2023-05-22T12:35:14;97836.13;;;24.28;42.21
40850;BME280;26571;41.610;25.380;2023-05-22T12:37:47;97877.00;;;24.70;40.58
40850;BME280;26571;41.610;25.380;2023-05-22T12:40:15;97874.06;;;24.82;40.54
40850;BME280;26571;41.610;25.380;2023-05-22T12:42:47;97872.16;;;24.83;41.45
40850;BME280;26571;41.610;25.380;2023-05-22T12:45:13;97874.84;;;24.83;41.49
40850;BME280;26571;41.610;25.380;2023-05-22T12:47:39;97870.78;;;24.90;42.37
40850;BME280;26571;41.610;25.380;2023-05-22T12:50:07;97872.44;;;24.91;41.62
40850;BME280;26571;41.610;25.380;2023-05-22T12:52:36;97872.13;;;24.98;40.56
40850;BME280;26571;41.610;25.380;2023-05-22T12:55:05;97868.84;;;25.06;41.48
40850;BME280;26571;41.610;25.380;2023-05-22T12:57:32;97860.78;;;25.01;41.75
40850;BME280;26571;41.610;25.380;2023-05-22T12:59:57;97866.22;;;25.11;41.19
40850;BME280;26571;41.610;25.380;2023-05-22T13:02:24;97852.75;;;24.91;39.76
40850;BME280;26571;41.610;25.380;2023-05-22T13:04:51;97861.34;;;24.98;40.66
40850;BME280;26571;41.610;25.380;2023-05-22T13:07:18;97860.34;;;24.73;39.47
40850;BME280;26571;41.610;25.380;2023-05-22T13:09:43;97859.25;;;24.64;41.44
40850;BME280;26571;41.610;25.380;2023-05-22T13:12:08;97852.78;;;24.75;42.13
40850;BME280;26571;41.610;25.380;2023-05-22T13:14:36;97854.69;;;24.70;41.59
40850;BME280;26571;41.610;25.380;2023-05-22T13:17:04;97850.34;;;24.79;42.22
40850;BME280;26571;41.610;25.380;2023-05-22T13:19:32;97851.66;;;25.02;41.21
40850;BME280;26571;41.610;25.380;2023-05-22T13:21:57;97844.63;;;25.01;39.61
40850;BME280;26571;41.610;25.380;2023-05-22T13:24:22;97845.81;;;24.49;40.93
40850;BME280;26571;41.610;25.380;2023-05-22T13:26:48;97844.72;;;24.19;39.89